createdAt,value
2019-03-23T00:01:06.637Z,0
2019-03-23T00:02:16.562Z,0
2019-03-23T00:03:26.486Z,0
2019-03-23T00:04:36.405Z,0
2019-03-23T00:05:46.322Z,0
2019-03-23T00:06:56.242Z,0
2019-03-23T00:08:06.162Z,0
2019-03-23T00:09:16.087Z,0
2019-03-23T00:10:26.004Z,0
2019-03-23T00:11:36.022Z,0
2019-03-23T00:12:45.942Z,0
2019-03-23T00:13:55.865Z,0
2019-03-23T00:15:05.791Z,0
2019-03-23T00:16:15.708Z,0
2019-03-23T00:17:25.631Z,0
2019-03-23T00:18:35.569Z,0
2019-03-23T00:19:45.499Z,0
2019-03-23T00:20:55.420Z,0
2019-03-23T00:22:05.351Z,0
2019-03-23T00:23:15.275Z,0
2019-03-23T00:24:25.197Z,0
2019-03-23T00:25:35.126Z,0
2019-03-23T00:26:45.055Z,0
2019-03-23T00:27:54.977Z,0
2019-03-23T00:29:05.749Z,0
2019-03-23T00:30:15.696Z,0
2019-03-23T00:31:25.622Z,0
2019-03-23T00:32:35.540Z,0
2019-03-23T00:33:45.467Z,0
2019-03-23T00:34:55.395Z,0
2019-03-23T00:36:05.315Z,0
2019-03-23T00:37:15.236Z,0
2019-03-23T00:38:25.160Z,0
2019-03-23T00:39:35.083Z,0
2019-03-23T00:40:45.130Z,0
2019-03-23T00:41:55.054Z,0
2019-03-23T00:43:04.976Z,0
2019-03-23T00:44:17.060Z,0
2019-03-23T00:45:26.989Z,0
2019-03-23T00:46:36.957Z,0
2019-03-23T00:47:46.877Z,0
2019-03-23T00:48:56.817Z,0
2019-03-23T00:50:06.741Z,0
2019-03-23T00:51:16.667Z,0
2019-03-23T00:52:26.689Z,0
2019-03-23T00:53:36.613Z,0
2019-03-23T00:54:46.530Z,0
2019-03-23T00:55:56.452Z,0
2019-03-23T00:57:06.371Z,0
2019-03-23T00:58:16.287Z,0
2019-03-23T00:59:26.211Z,0
2019-03-23T01:00:36.139Z,0
2019-03-23T01:01:46.072Z,0
2019-03-23T01:02:55.998Z,0
2019-03-23T01:04:05.926Z,0
2019-03-23T01:05:15.848Z,0
2019-03-23T01:06:25.797Z,0
2019-03-23T01:07:35.717Z,0
2019-03-23T01:08:45.386Z,0
2019-03-23T01:09:55.415Z,0
2019-03-23T01:11:05.339Z,0
2019-03-23T01:12:15.291Z,0
2019-03-23T01:13:25.227Z,0
2019-03-23T01:14:35.148Z,0
2019-03-23T01:15:45.081Z,0
2019-03-23T01:16:55.002Z,0
2019-03-23T01:18:04.938Z,0
2019-03-23T01:19:14.871Z,0
2019-03-23T01:20:24.790Z,0
2019-03-23T01:21:34.706Z,0
2019-03-23T01:22:44.632Z,0
2019-03-23T01:23:54.575Z,0
2019-03-23T01:25:04.505Z,0
2019-03-23T01:26:14.804Z,0
2019-03-23T01:27:24.797Z,0
2019-03-23T01:28:34.715Z,0
2019-03-23T01:29:44.635Z,0
2019-03-23T01:30:54.558Z,0
2019-03-23T01:32:04.482Z,0
2019-03-23T01:33:14.403Z,0
2019-03-23T01:34:24.373Z,0
2019-03-23T01:35:34.069Z,0
2019-03-23T01:36:43.997Z,0
2019-03-23T01:37:53.914Z,0
2019-03-23T01:39:03.941Z,0
2019-03-23T01:40:13.907Z,0
2019-03-23T01:41:23.824Z,0
2019-03-23T01:42:33.746Z,0
2019-03-23T01:43:43.680Z,0
2019-03-23T01:44:53.598Z,0
2019-03-23T01:46:03.572Z,0
2019-03-23T01:47:13.492Z,0
2019-03-23T01:48:23.423Z,0
2019-03-23T01:49:33.386Z,0
2019-03-23T01:50:43.315Z,0
2019-03-23T01:51:53.231Z,0
2019-03-23T01:53:03.158Z,0
2019-03-23T01:54:13.076Z,0
2019-03-23T01:55:22.752Z,0
2019-03-23T01:56:32.728Z,0
2019-03-23T01:57:42.644Z,0
2019-03-23T01:58:52.606Z,0
2019-03-23T02:00:02.283Z,0
2019-03-23T02:01:12.214Z,0
2019-03-23T02:02:22.134Z,0
2019-03-23T02:03:32.108Z,0
2019-03-23T02:04:41.781Z,0
2019-03-23T02:05:51.704Z,0
2019-03-23T02:07:01.624Z,0
2019-03-23T02:08:11.582Z,0
2019-03-23T02:09:21.548Z,0
2019-03-23T02:10:31.469Z,0
2019-03-23T02:11:41.435Z,0
2019-03-23T02:12:51.369Z,0
2019-03-23T02:14:01.389Z,0
2019-03-23T02:15:11.316Z,0
2019-03-23T02:16:21.246Z,0
2019-03-23T02:17:31.192Z,0
2019-03-23T02:18:41.111Z,0
2019-03-23T02:19:51.147Z,0
2019-03-23T02:21:00.815Z,0
2019-03-23T02:22:10.742Z,0
2019-03-23T02:23:20.667Z,0
2019-03-23T02:24:30.594Z,0
2019-03-23T02:25:40.533Z,0
2019-03-23T02:26:50.456Z,0
2019-03-23T02:28:00.382Z,0
2019-03-23T02:29:10.301Z,0
2019-03-23T02:30:20.273Z,0
2019-03-23T02:31:30.220Z,0
2019-03-23T02:32:40.154Z,0
2019-03-23T02:33:50.085Z,0
2019-03-23T02:35:00.036Z,0
2019-03-23T02:36:09.975Z,0
2019-03-23T02:37:32.422Z,0
2019-03-23T02:38:42.379Z,0
2019-03-23T02:39:52.357Z,0
2019-03-23T02:41:02.306Z,0
2019-03-23T02:42:12.346Z,0
2019-03-23T02:43:22.312Z,0
2019-03-23T02:44:32.253Z,0
2019-03-23T02:45:42.194Z,0
2019-03-23T02:46:52.141Z,0
2019-03-23T02:48:02.173Z,0
2019-03-23T02:49:11.875Z,0
2019-03-23T02:50:21.855Z,0
2019-03-23T02:51:31.839Z,0
2019-03-23T02:52:41.805Z,0
2019-03-23T02:53:51.743Z,0
2019-03-23T02:55:01.742Z,0
2019-03-23T02:56:11.694Z,0
2019-03-23T02:57:21.623Z,0
2019-03-23T02:58:31.595Z,0
2019-03-23T02:59:41.524Z,0
2019-03-23T03:00:51.469Z,0
2019-03-23T03:02:01.413Z,0
2019-03-23T03:03:11.344Z,0
2019-03-23T03:04:21.288Z,0
2019-03-23T03:05:31.270Z,0
2019-03-23T03:06:41.210Z,0
2019-03-23T03:07:53.114Z,0
2019-03-23T03:09:03.052Z,0
2019-03-23T03:10:12.993Z,0
2019-03-23T03:11:23.072Z,0
2019-03-23T03:12:33.007Z,0
2019-03-23T03:13:42.935Z,0
2019-03-23T03:14:52.873Z,0
2019-03-23T03:16:02.853Z,0
2019-03-23T03:17:12.892Z,0
2019-03-23T03:18:22.926Z,0
2019-03-23T03:19:32.858Z,0
2019-03-23T03:20:42.842Z,0
2019-03-23T03:21:52.781Z,0
2019-03-23T03:23:02.722Z,0
2019-03-23T03:24:12.652Z,0
2019-03-23T03:25:22.578Z,0
2019-03-23T03:26:32.512Z,0
2019-03-23T03:27:42.442Z,0
2019-03-23T03:28:51.869Z,0
2019-03-23T03:30:01.835Z,0
2019-03-23T03:31:11.687Z,0
2019-03-23T03:32:21.706Z,0
2019-03-23T03:33:31.424Z,0
2019-03-23T03:34:41.400Z,0
2019-03-23T03:35:51.082Z,0
2019-03-23T03:37:01.018Z,0
2019-03-23T03:38:10.955Z,0
2019-03-23T03:39:20.920Z,0
2019-03-23T03:40:30.978Z,0
2019-03-23T03:41:40.902Z,0
2019-03-23T03:42:50.851Z,0
2019-03-23T03:44:00.796Z,0
2019-03-23T03:45:10.758Z,0
2019-03-23T03:46:20.712Z,0
2019-03-23T03:47:30.677Z,0
2019-03-23T03:48:40.613Z,0
2019-03-23T03:49:50.564Z,0
2019-03-23T03:51:00.503Z,0
2019-03-23T03:52:10.441Z,0
2019-03-23T03:53:20.147Z,0
2019-03-23T03:54:30.084Z,0
2019-03-23T03:55:40.047Z,0
2019-03-23T03:56:49.974Z,0
2019-03-23T03:58:00.008Z,0
2019-03-23T03:59:09.727Z,0
2019-03-23T04:00:19.670Z,0
2019-03-23T04:01:29.597Z,0
2019-03-23T04:02:39.559Z,0
2019-03-23T04:03:49.258Z,0
2019-03-23T04:04:59.216Z,0
2019-03-23T04:06:09.145Z,0
2019-03-23T04:07:18.823Z,0
2019-03-23T04:08:28.504Z,0
2019-03-23T04:09:40.396Z,0
2019-03-23T04:10:50.278Z,0
2019-03-23T04:12:00.222Z,0
2019-03-23T04:13:10.205Z,0
2019-03-23T04:14:20.153Z,0
2019-03-23T04:15:30.135Z,0
2019-03-23T04:16:40.086Z,0
2019-03-23T04:17:50.024Z,0
2019-03-23T04:18:59.975Z,0
2019-03-23T04:20:10.202Z,0
2019-03-23T04:21:19.994Z,0
2019-03-23T04:22:29.931Z,0
2019-03-23T04:23:39.626Z,0
2019-03-23T04:24:49.559Z,0
2019-03-23T04:25:59.589Z,0
2019-03-23T04:27:09.318Z,0
2019-03-23T04:28:19.316Z,0
2019-03-23T04:29:29.263Z,0
2019-03-23T04:30:39.198Z,0
2019-03-23T04:31:49.127Z,0
2019-03-23T04:32:59.079Z,0
2019-03-23T04:34:09.004Z,0
2019-03-23T04:35:18.952Z,0
2019-03-23T04:36:28.881Z,0
2019-03-23T04:37:38.811Z,0
2019-03-23T04:38:48.736Z,0
2019-03-23T04:39:58.705Z,0
2019-03-23T04:41:08.402Z,0
2019-03-23T04:42:18.327Z,0
2019-03-23T04:43:28.250Z,0
2019-03-23T04:44:38.272Z,0
2019-03-23T04:45:48.197Z,0
2019-03-23T04:46:58.112Z,0
2019-03-23T04:48:08.032Z,0
2019-03-23T04:49:17.970Z,0
2019-03-23T04:50:27.990Z,0
2019-03-23T04:51:37.924Z,0
2019-03-23T04:52:47.854Z,0
2019-03-23T04:53:57.529Z,0
2019-03-23T04:55:07.485Z,0
2019-03-23T04:56:17.406Z,0
2019-03-23T04:57:27.347Z,0
2019-03-23T04:58:37.271Z,0
2019-03-23T04:59:47.186Z,0
2019-03-23T05:00:57.117Z,0
2019-03-23T05:02:07.046Z,5
2019-03-23T05:03:16.964Z,5
2019-03-23T05:04:26.928Z,5
2019-03-23T05:05:36.854Z,5
2019-03-23T05:06:47.475Z,5
2019-03-23T05:07:57.392Z,5
2019-03-23T05:09:07.329Z,5
2019-03-23T05:10:17.283Z,10
2019-03-23T05:11:27.204Z,10
2019-03-23T05:12:37.127Z,10
2019-03-23T05:13:47.147Z,10
2019-03-23T05:14:57.067Z,10
2019-03-23T05:16:06.994Z,15
2019-03-23T05:17:16.918Z,15
2019-03-23T05:18:26.586Z,15
2019-03-23T05:19:36.758Z,15
2019-03-23T05:20:46.467Z,20
2019-03-23T05:21:56.085Z,20
2019-03-23T05:23:06.008Z,25
2019-03-23T05:24:15.929Z,25
2019-03-23T05:25:25.898Z,25
2019-03-23T05:26:35.581Z,30
2019-03-23T05:27:45.497Z,30
2019-03-23T05:28:55.424Z,30
2019-03-23T05:30:05.363Z,30
2019-03-23T05:31:16.742Z,30
2019-03-23T05:32:26.664Z,30
2019-03-23T05:33:36.588Z,35
2019-03-23T05:34:46.517Z,35
2019-03-23T05:35:56.437Z,35
2019-03-23T05:37:06.379Z,35
2019-03-23T05:38:16.307Z,35
2019-03-23T05:39:26.229Z,40
2019-03-23T05:40:36.154Z,40
2019-03-23T05:41:45.851Z,40
2019-03-23T05:42:55.908Z,40
2019-03-23T05:44:05.829Z,45
2019-03-23T05:45:15.760Z,45
2019-03-23T05:46:25.691Z,45
2019-03-23T05:47:35.607Z,50
2019-03-23T05:48:45.633Z,50
2019-03-23T05:49:55.566Z,50
2019-03-23T05:51:05.491Z,55
2019-03-23T05:52:15.409Z,55
2019-03-23T05:53:25.355Z,55
2019-03-23T05:54:35.277Z,55
2019-03-23T05:55:45.198Z,60
2019-03-23T05:56:55.118Z,60
2019-03-23T05:58:05.035Z,65
2019-03-23T05:59:14.958Z,65
2019-03-23T06:00:24.883Z,65
2019-03-23T06:01:34.859Z,70
2019-03-23T06:02:44.799Z,70
2019-03-23T06:03:54.730Z,75
2019-03-23T06:05:04.649Z,75
2019-03-23T06:06:14.565Z,80
2019-03-23T06:07:24.486Z,80
2019-03-23T06:08:34.407Z,85
2019-03-23T06:09:44.390Z,85
2019-03-23T06:10:54.309Z,90
2019-03-23T06:12:04.327Z,95
2019-03-23T06:13:14.245Z,95
2019-03-23T06:14:24.180Z,105
2019-03-23T06:15:34.129Z,110
2019-03-23T06:16:44.050Z,105
2019-03-23T06:17:54.073Z,110
2019-03-23T06:19:03.998Z,115
2019-03-23T06:20:14.380Z,120
2019-03-23T06:21:24.307Z,125
2019-03-23T06:22:34.274Z,130
2019-03-23T06:23:44.227Z,130
2019-03-23T06:24:53.906Z,130
2019-03-23T06:26:06.330Z,135
2019-03-23T06:27:16.410Z,135
2019-03-23T06:28:26.341Z,140
2019-03-23T06:29:36.273Z,140
2019-03-23T06:30:46.199Z,140
2019-03-23T06:31:56.118Z,145
2019-03-23T06:33:06.680Z,145
2019-03-23T06:34:16.611Z,145
2019-03-23T06:35:26.685Z,150
2019-03-23T06:36:36.606Z,150
2019-03-23T06:37:46.534Z,150
2019-03-23T06:39:04.995Z,150
2019-03-23T06:40:15.375Z,150
2019-03-23T06:41:25.394Z,150
2019-03-23T06:42:35.323Z,150
2019-03-23T06:43:45.245Z,155
2019-03-23T06:44:55.161Z,160
2019-03-23T06:46:05.083Z,160
2019-03-23T06:47:15.108Z,160
2019-03-23T06:48:25.037Z,160
2019-03-23T06:49:34.962Z,160
2019-03-23T06:50:44.883Z,165
2019-03-23T06:51:54.805Z,165
2019-03-23T06:53:04.825Z,165
2019-03-23T06:54:14.749Z,170
2019-03-23T06:55:24.678Z,170
2019-03-23T06:56:34.602Z,170
2019-03-23T06:57:44.529Z,175
2019-03-23T06:58:54.562Z,175
2019-03-23T07:00:04.480Z,175
2019-03-23T07:01:14.409Z,175
2019-03-23T07:02:24.323Z,180
2019-03-23T07:03:34.248Z,180
2019-03-23T07:04:44.164Z,180
2019-03-23T07:05:54.113Z,180
2019-03-23T07:07:04.042Z,185
2019-03-23T07:08:13.968Z,185
2019-03-23T07:09:26.061Z,185
2019-03-23T07:10:35.982Z,190
2019-03-23T07:11:45.922Z,190
2019-03-23T07:12:55.851Z,190
2019-03-23T07:14:05.774Z,190
2019-03-23T07:15:26.523Z,195
2019-03-23T07:16:36.661Z,195
2019-03-23T07:17:46.580Z,195
2019-03-23T07:18:56.504Z,195
2019-03-23T07:20:06.179Z,200
2019-03-23T07:21:16.108Z,200
2019-03-23T07:22:25.872Z,200
2019-03-23T07:23:35.836Z,200
2019-03-23T07:24:45.513Z,205
2019-03-23T07:25:55.432Z,205
2019-03-23T07:27:05.363Z,205
2019-03-23T07:28:17.592Z,205
2019-03-23T07:29:27.516Z,205
2019-03-23T07:30:37.467Z,210
2019-03-23T07:31:47.391Z,210
2019-03-23T07:32:57.325Z,210
2019-03-23T07:34:08.654Z,210
2019-03-23T07:35:18.593Z,210
2019-03-23T07:36:28.524Z,215
2019-03-23T07:37:38.195Z,220
2019-03-23T07:38:48.131Z,215
2019-03-23T07:39:58.195Z,215
2019-03-23T07:41:07.882Z,220
2019-03-23T07:42:17.815Z,220
2019-03-23T07:43:27.790Z,220
2019-03-23T07:44:37.715Z,220
2019-03-23T07:45:47.744Z,220
2019-03-23T07:46:57.668Z,225
2019-03-23T07:48:07.596Z,225
2019-03-23T07:49:17.535Z,225
2019-03-23T07:50:27.457Z,225
2019-03-23T07:51:37.480Z,230
2019-03-23T07:52:47.404Z,230
2019-03-23T07:53:57.329Z,230
2019-03-23T07:55:07.254Z,230
2019-03-23T07:56:17.174Z,230
2019-03-23T07:57:27.091Z,240
2019-03-23T07:58:36.761Z,235
2019-03-23T07:59:46.682Z,235
2019-03-23T08:00:56.614Z,235
2019-03-23T08:02:06.547Z,235
2019-03-23T08:03:16.465Z,240
2019-03-23T08:04:26.391Z,240
2019-03-23T08:05:36.314Z,240
2019-03-23T08:06:46.231Z,240
2019-03-23T08:07:56.163Z,245
2019-03-23T08:09:06.099Z,245
2019-03-23T08:10:16.026Z,245
2019-03-23T08:11:25.952Z,245
2019-03-23T08:12:35.883Z,250
2019-03-23T08:13:45.821Z,250
2019-03-23T08:14:55.852Z,250
2019-03-23T08:16:05.776Z,255
2019-03-23T08:17:15.758Z,255
2019-03-23T08:18:25.689Z,260
2019-03-23T08:19:35.610Z,255
2019-03-23T08:20:45.632Z,255
2019-03-23T08:21:55.555Z,260
2019-03-23T08:23:05.512Z,260
2019-03-23T08:24:15.444Z,260
2019-03-23T08:25:25.379Z,260
2019-03-23T08:26:35.054Z,265
2019-03-23T08:27:46.496Z,265
2019-03-23T08:28:56.415Z,270
2019-03-23T08:30:06.344Z,270
2019-03-23T08:31:16.270Z,270
2019-03-23T08:32:25.959Z,275
2019-03-23T08:33:35.881Z,275
2019-03-23T08:34:45.802Z,280
2019-03-23T08:35:55.726Z,280
2019-03-23T08:37:06.962Z,285
2019-03-23T08:38:16.940Z,290
2019-03-23T08:39:26.866Z,290
2019-03-23T08:40:38.250Z,290
2019-03-23T08:41:48.170Z,290
2019-03-23T08:42:58.101Z,295
2019-03-23T08:44:08.139Z,295
2019-03-23T08:45:18.068Z,295
2019-03-23T08:46:27.997Z,300
2019-03-23T08:47:37.667Z,300
2019-03-23T08:48:47.594Z,300
2019-03-23T08:49:59.589Z,305
2019-03-23T08:51:09.658Z,305
2019-03-23T08:52:19.587Z,305
2019-03-23T08:53:29.509Z,305
2019-03-23T08:54:39.434Z,305
2019-03-23T08:55:49.453Z,310
2019-03-23T08:56:59.369Z,310
2019-03-23T08:58:09.296Z,310
2019-03-23T08:59:19.217Z,310
2019-03-23T09:00:29.153Z,315
2019-03-23T09:01:39.075Z,315
2019-03-23T09:02:49.002Z,320
2019-03-23T09:04:02.346Z,315
2019-03-23T09:05:12.282Z,315
2019-03-23T09:06:22.207Z,315
2019-03-23T09:07:32.130Z,315
2019-03-23T09:08:42.050Z,320
2019-03-23T09:10:01.521Z,320
2019-03-23T09:11:22.552Z,320
2019-03-23T09:12:32.577Z,320
2019-03-23T09:13:50.203Z,320
2019-03-23T09:15:00.176Z,320
2019-03-23T09:16:10.186Z,320
2019-03-23T09:17:20.110Z,320
2019-03-23T09:18:30.036Z,320
2019-03-23T09:19:39.978Z,325
2019-03-23T09:20:49.446Z,325
2019-03-23T09:21:59.388Z,325
2019-03-23T09:23:09.310Z,325
2019-03-23T09:24:19.229Z,325
2019-03-23T09:25:29.167Z,325
2019-03-23T09:26:39.114Z,325
2019-03-23T09:27:49.037Z,325
2019-03-23T09:28:58.966Z,330
2019-03-23T09:30:08.964Z,335
2019-03-23T09:31:18.887Z,330
2019-03-23T09:32:28.846Z,330
2019-03-23T09:33:38.795Z,335
2019-03-23T09:34:48.716Z,335
2019-03-23T09:35:58.643Z,335
2019-03-23T09:37:08.562Z,335
2019-03-23T09:38:18.486Z,345
2019-03-23T09:39:28.415Z,355
2019-03-23T09:40:38.341Z,370
2019-03-23T09:41:48.363Z,375
2019-03-23T09:42:58.287Z,350
2019-03-23T09:44:08.212Z,350
2019-03-23T09:45:19.261Z,350
2019-03-23T09:46:29.188Z,350
2019-03-23T09:47:39.213Z,345
2019-03-23T09:48:49.184Z,345
2019-03-23T09:49:59.107Z,345
2019-03-23T09:51:09.028Z,345
2019-03-23T09:52:18.958Z,350
2019-03-23T09:53:28.977Z,350
2019-03-23T09:54:38.934Z,355
2019-03-23T09:55:48.859Z,355
2019-03-23T09:56:59.627Z,355
2019-03-23T09:58:09.658Z,355
2019-03-23T09:59:19.575Z,355
2019-03-23T10:00:29.498Z,360
2019-03-23T10:01:39.428Z,370
2019-03-23T10:02:49.353Z,390
2019-03-23T10:03:59.283Z,390
2019-03-23T10:05:09.283Z,370
2019-03-23T10:06:19.226Z,380
2019-03-23T10:07:28.893Z,385
2019-03-23T10:08:38.830Z,400
2019-03-23T10:09:48.751Z,415
2019-03-23T10:10:58.671Z,445
2019-03-23T10:12:08.903Z,465
2019-03-23T10:13:18.878Z,465
2019-03-23T10:14:28.816Z,525
2019-03-23T10:15:38.738Z,535
2019-03-23T10:16:48.763Z,565
2019-03-23T10:17:58.696Z,735
2019-03-23T10:19:08.621Z,685
2019-03-23T10:20:18.573Z,610
2019-03-23T10:21:28.517Z,750
2019-03-23T10:22:38.537Z,575
2019-03-23T10:23:48.459Z,565
2019-03-23T10:24:58.379Z,580
2019-03-23T10:26:08.058Z,430
2019-03-23T10:27:18.066Z,460
2019-03-23T10:28:27.989Z,485
2019-03-23T10:29:37.910Z,380
2019-03-23T10:30:47.835Z,430
2019-03-23T10:31:58.258Z,390
2019-03-23T10:33:07.945Z,380
2019-03-23T10:34:17.873Z,385
2019-03-23T10:35:27.805Z,370
2019-03-23T10:36:37.728Z,380
2019-03-23T10:37:47.673Z,335
2019-03-23T10:38:57.593Z,435
2019-03-23T10:40:09.929Z,445
2019-03-23T10:41:19.852Z,445
2019-03-23T10:42:29.534Z,445
2019-03-23T10:43:41.474Z,400
2019-03-23T10:44:51.407Z,370
2019-03-23T10:46:01.449Z,370
2019-03-23T10:47:11.377Z,390
2019-03-23T10:48:21.870Z,415
2019-03-23T10:49:31.795Z,470
2019-03-23T10:50:41.722Z,485
2019-03-23T10:51:51.654Z,380
2019-03-23T10:53:01.571Z,470
2019-03-23T10:54:13.680Z,550
2019-03-23T10:55:23.604Z,590
2019-03-23T10:56:33.526Z,530
2019-03-23T10:57:43.500Z,480
2019-03-23T10:58:53.419Z,485
2019-03-23T11:00:03.341Z,540
2019-03-23T11:01:13.262Z,405
2019-03-23T11:02:23.180Z,360
2019-03-23T11:03:33.097Z,510
2019-03-23T11:04:43.020Z,515
2019-03-23T11:05:52.935Z,495
2019-03-23T11:07:02.860Z,525
2019-03-23T11:08:12.815Z,485
2019-03-23T11:09:22.757Z,465
2019-03-23T11:10:41.354Z,535
2019-03-23T11:11:51.895Z,460
2019-03-23T11:13:01.848Z,535
2019-03-23T11:14:11.779Z,815
2019-03-23T11:15:22.307Z,875
2019-03-23T11:16:32.233Z,325
2019-03-23T11:17:42.165Z,855
2019-03-23T11:18:52.086Z,900
2019-03-23T11:20:03.300Z,900
2019-03-23T11:21:13.323Z,890
2019-03-23T11:22:22.994Z,955
2019-03-23T11:23:32.916Z,915
2019-03-23T11:24:42.847Z,860
2019-03-23T11:25:52.798Z,870
2019-03-23T11:27:02.728Z,890
2019-03-23T11:28:12.652Z,400
2019-03-23T11:29:22.581Z,420
2019-03-23T11:30:32.507Z,410
2019-03-23T11:31:42.436Z,690
2019-03-23T11:32:52.450Z,985
2019-03-23T11:34:02.377Z,750
2019-03-23T11:35:13.195Z,830
2019-03-23T11:36:22.970Z,1020
2019-03-23T11:37:33.644Z,1040
2019-03-23T11:38:43.342Z,1110
2019-03-23T11:39:53.278Z,690
2019-03-23T11:41:04.832Z,725
2019-03-23T11:42:14.754Z,1200
2019-03-23T11:43:24.691Z,1275
2019-03-23T11:44:34.615Z,1310
2019-03-23T11:45:44.543Z,1315
2019-03-23T11:46:54.499Z,900
2019-03-23T11:48:04.426Z,785
2019-03-23T11:49:14.367Z,1245
2019-03-23T11:50:24.394Z,1260
2019-03-23T11:51:34.321Z,1285
2019-03-23T11:52:44.246Z,650
2019-03-23T11:53:54.187Z,1150
2019-03-23T11:55:04.126Z,1410
2019-03-23T11:56:14.056Z,1415
2019-03-23T11:57:23.989Z,1030
2019-03-23T11:58:33.944Z,1345
2019-03-23T11:59:43.886Z,1245
2019-03-23T12:00:53.835Z,1400
2019-03-23T12:02:03.772Z,1475
2019-03-23T12:03:13.706Z,1380
2019-03-23T12:04:24.902Z,1440
2019-03-23T12:05:35.168Z,1425
2019-03-23T12:06:45.106Z,1305
2019-03-23T12:07:55.098Z,1225
2019-03-23T12:09:05.041Z,1290
2019-03-23T12:10:14.977Z,1295
2019-03-23T12:11:24.918Z,1080
2019-03-23T12:12:34.848Z,955
2019-03-23T12:13:44.777Z,960
2019-03-23T12:14:54.718Z,940
2019-03-23T12:16:04.648Z,945
2019-03-23T12:17:14.588Z,975
2019-03-23T12:18:24.528Z,1040
2019-03-23T12:19:34.566Z,965
2019-03-23T12:20:44.512Z,975
2019-03-23T12:21:55.716Z,995
2019-03-23T12:23:05.644Z,1045
2019-03-23T12:24:15.576Z,1110
2019-03-23T12:25:25.558Z,1125
2019-03-23T12:26:35.497Z,1015
2019-03-23T12:27:45.447Z,1065
2019-03-23T12:28:55.430Z,1115
2019-03-23T12:30:16.338Z,1215
2019-03-23T12:31:26.267Z,485
2019-03-23T12:32:36.194Z,1310
2019-03-23T12:33:46.125Z,1335
2019-03-23T12:34:56.058Z,1420
2019-03-23T12:36:05.998Z,1545
2019-03-23T12:37:15.923Z,1945
2019-03-23T12:38:25.865Z,3790
2019-03-23T12:39:35.819Z,3195
2019-03-23T12:40:46.146Z,2615
2019-03-23T12:41:55.956Z,1680
2019-03-23T13:49:54.299Z,740
2019-03-23T13:51:04.244Z,745
2019-03-23T13:52:14.177Z,960
2019-03-23T13:53:24.108Z,920
2019-03-23T13:54:34.038Z,665
2019-03-23T13:55:43.960Z,620
2019-03-23T13:56:53.884Z,800
2019-03-23T13:58:03.809Z,685
2019-03-23T13:59:13.738Z,790
2019-03-23T14:00:23.665Z,1095
2019-03-23T14:01:33.359Z,1010
2019-03-23T14:02:43.283Z,830
2019-03-23T14:03:53.214Z,565
2019-03-23T14:05:03.191Z,490
2019-03-23T14:06:13.115Z,575
2019-03-23T14:07:22.848Z,525
2019-03-23T14:08:32.773Z,480
2019-03-23T14:09:42.740Z,435
2019-03-23T14:10:52.660Z,560
2019-03-23T14:12:04.859Z,810
2019-03-23T14:13:14.784Z,1680
2019-03-23T14:14:24.709Z,1580
2019-03-23T14:15:34.634Z,765
2019-03-23T14:16:44.575Z,935
2019-03-23T14:17:54.503Z,820
2019-03-23T14:19:04.429Z,995
2019-03-23T14:20:14.361Z,1145
2019-03-23T14:21:24.292Z,1365
2019-03-23T14:22:34.242Z,1170
2019-03-23T14:23:44.197Z,1100
2019-03-23T14:24:54.235Z,1465
2019-03-23T14:26:04.164Z,1505
2019-03-23T14:27:14.092Z,1285
2019-03-23T14:28:24.014Z,1160
2019-03-23T14:29:33.940Z,1305
2019-03-23T14:30:43.871Z,1360
2019-03-23T14:31:53.795Z,1350
2019-03-23T14:33:03.722Z,1310
2019-03-23T14:34:13.402Z,1620
2019-03-23T14:35:23.337Z,1395
2019-03-23T14:36:33.027Z,1465
2019-03-23T14:37:42.987Z,1455
2019-03-23T14:38:52.916Z,1250
2019-03-23T14:40:02.875Z,1305
2019-03-23T14:41:12.801Z,1305
2019-03-23T14:42:22.773Z,1655
2019-03-23T14:43:32.696Z,1730
2019-03-23T14:44:42.649Z,1875
2019-03-23T14:45:52.589Z,2065
2019-03-23T14:47:02.261Z,2075
2019-03-23T14:48:12.184Z,2140
2019-03-23T14:49:22.117Z,2110
2019-03-23T14:50:32.065Z,2100
2019-03-23T14:51:42.038Z,2080
2019-03-23T14:52:51.963Z,2075
2019-03-23T14:54:01.996Z,2095
2019-03-23T14:55:11.925Z,2090
2019-03-23T14:56:21.857Z,1805
2019-03-23T14:57:31.794Z,1150
2019-03-23T14:58:41.743Z,1905
2019-03-23T14:59:51.730Z,2000
2019-03-23T15:01:01.690Z,1985
2019-03-23T15:02:11.629Z,1980
2019-03-23T15:03:21.554Z,1935
2019-03-23T15:04:31.486Z,1955
2019-03-23T15:05:41.473Z,1875
2019-03-23T15:06:51.412Z,1685
2019-03-23T15:08:01.342Z,1865
2019-03-23T15:09:11.025Z,1970
2019-03-23T15:10:20.961Z,1940
2019-03-23T15:11:30.899Z,1875
2019-03-23T15:12:40.830Z,1890
2019-03-23T15:13:52.407Z,1915
2019-03-23T15:15:02.341Z,1855
2019-03-23T15:16:12.291Z,1890
2019-03-23T15:17:22.270Z,1905
2019-03-23T15:18:32.199Z,1845
2019-03-23T15:19:42.130Z,1860
2019-03-23T15:20:52.072Z,1830
2019-03-23T15:22:02.005Z,1830
2019-03-23T15:23:11.779Z,1775
2019-03-23T15:24:21.712Z,1785
2019-03-23T15:25:31.653Z,1730
2019-03-23T15:26:41.606Z,1685
2019-03-23T15:27:51.562Z,1720
2019-03-23T15:29:01.496Z,1700
2019-03-23T15:30:11.445Z,1700
2019-03-23T15:31:21.377Z,1665
2019-03-23T15:32:31.302Z,1645
2019-03-23T15:33:41.230Z,1590
2019-03-23T15:34:51.213Z,1600
2019-03-23T15:36:01.135Z,1600
2019-03-23T15:37:10.817Z,1585
2019-03-23T15:38:20.759Z,1560
2019-03-23T15:39:30.688Z,1400
2019-03-23T15:40:40.615Z,1320
2019-03-23T15:41:50.544Z,690
2019-03-23T15:43:00.473Z,560
2019-03-23T15:44:10.403Z,260
2019-03-23T15:45:20.344Z,655
2019-03-23T15:46:30.276Z,590
2019-03-23T15:47:40.215Z,570
2019-03-23T15:48:50.139Z,560
2019-03-23T15:50:00.064Z,615
2019-03-23T15:51:10.032Z,555
2019-03-23T15:52:20.022Z,555
2019-03-23T15:53:29.695Z,475
2019-03-23T15:54:39.622Z,505
2019-03-23T15:55:49.563Z,440
2019-03-23T15:56:59.490Z,405
2019-03-23T15:58:09.525Z,420
2019-03-23T15:59:19.532Z,375
2019-03-23T16:00:29.459Z,360
2019-03-23T16:01:39.392Z,395
2019-03-23T16:02:49.351Z,495
2019-03-23T16:03:59.280Z,455
2019-03-23T16:05:09.210Z,655
2019-03-23T16:06:19.143Z,535
2019-03-23T16:07:38.793Z,205
2019-03-23T16:08:48.722Z,250
2019-03-23T16:09:58.694Z,340
2019-03-23T16:11:08.619Z,605
2019-03-23T16:12:18.588Z,575
2019-03-23T16:13:28.254Z,610
2019-03-23T16:14:38.186Z,590
2019-03-23T16:15:48.115Z,580
2019-03-23T16:16:58.037Z,510
2019-03-23T16:18:08.927Z,480
2019-03-23T16:19:18.851Z,310
2019-03-23T16:20:28.809Z,225
2019-03-23T16:21:38.837Z,195
2019-03-23T16:22:48.759Z,190
2019-03-23T16:23:58.679Z,180
2019-03-23T16:25:08.608Z,245
2019-03-23T16:26:18.529Z,280
2019-03-23T16:27:28.504Z,225
2019-03-23T16:28:38.425Z,220
2019-03-23T16:29:48.348Z,200
2019-03-23T16:30:58.292Z,200
2019-03-23T16:32:08.223Z,200
2019-03-23T16:33:18.250Z,305
2019-03-23T16:34:28.171Z,300
2019-03-23T16:35:38.088Z,215
2019-03-23T16:36:48.031Z,155
2019-03-23T16:37:57.445Z,145
2019-03-23T16:39:07.375Z,145
2019-03-23T16:40:17.350Z,135
2019-03-23T16:41:27.273Z,135
2019-03-23T16:42:47.053Z,130
2019-03-23T16:43:56.970Z,140
2019-03-23T16:45:06.706Z,165
2019-03-23T16:46:16.389Z,130
2019-03-23T16:47:26.070Z,120
2019-03-23T16:48:35.993Z,130
2019-03-23T16:49:45.665Z,160
2019-03-23T16:50:55.582Z,160
2019-03-23T16:52:05.500Z,135
2019-03-23T16:53:15.428Z,130
2019-03-23T16:54:25.362Z,110
2019-03-23T16:55:35.284Z,100
2019-03-23T16:56:45.198Z,100
2019-03-23T16:57:55.123Z,105
2019-03-23T16:59:05.614Z,130
2019-03-23T17:00:15.539Z,150
2019-03-23T17:01:25.462Z,125
2019-03-23T17:02:35.488Z,90
2019-03-23T17:03:45.408Z,85
2019-03-23T17:04:55.346Z,80
2019-03-23T17:06:05.270Z,80
2019-03-23T17:07:15.185Z,75
2019-03-23T17:08:25.108Z,75
2019-03-23T17:09:35.032Z,75
2019-03-23T17:10:44.959Z,70
2019-03-23T17:11:55.244Z,70
2019-03-23T17:13:05.271Z,65
2019-03-23T17:14:15.202Z,60
2019-03-23T17:15:25.133Z,60
2019-03-23T17:16:35.048Z,55
2019-03-23T17:17:44.966Z,55
2019-03-23T17:18:54.884Z,50
2019-03-23T17:20:04.866Z,50
2019-03-23T17:21:14.783Z,45
2019-03-23T17:22:24.452Z,45
2019-03-23T17:23:34.415Z,40
2019-03-23T17:24:44.337Z,40
2019-03-23T17:25:54.254Z,35
2019-03-23T17:27:04.170Z,35
2019-03-23T17:28:14.101Z,30
2019-03-23T17:29:24.023Z,30
2019-03-23T17:30:33.950Z,30
2019-03-23T17:31:43.971Z,25
2019-03-23T17:32:53.895Z,25